Strona główna
METAR-TAF:

METAR-TAF

Lotnisko :

Port lotniczy Dżudda

Dżudda, Arabia Saudyjska

Szerokość geograficzna: 21-42N, Długość geograficzna: 039-11E, wysokość: 15 m

Aktualna obserwacja pogody

Raport powstał 33 minut temu, godzina 02:00 UTC
Wiatr 5 kt od wschód
Temperatura 24°C
Wilgotność 78%
Ciśnienie 1012 hPa
Widzialność 10 km lub więcej
Mało chmury na wysokości 4000 ft

METAR: OEJN 280200Z 09005KT 9999 FEW040 24/20 Q1012 NOSIG

czas: 05:33 (02:33 UTC)

Prognoza

Raport powstał 3 godziny i 33 minut temu, godzina 23:00 UTC
Prognoza ważna od 28 godzina 00 UTC do 29 godzina 06 UTC
Wiatr 3 kt z kierunków zmiennych
Widzialność 10 km lub więcej
Mało chmury na wysokości 4000 ft
Stopniowe zmiany
od 28 godzina 06 UTC do 28 godzina 08 UTC
Wiatr 10 kt od południowo-południowy zachód

TAF: OEJN 272300Z 2800/2906 VRB03KT 9999 FEW040 BECMG 2806/2808 21010KT

Obserwacja i prognoza pogody dla ponad 4000 lotnisk (raport METAR i TAF).

Dostępne stacje oznaczono żółtymi i czerwonymi punktami na mapie.

Najedź kursorem aby zobaczyć nazwę stacji.

Kliknij aby zobaczyć obserwacje i prognozy pogody.

Aby zmienić mapę: kliknij na zielony przycisk z czarnym krzyżykiem, aby powiększyć; na zielony przycisk z myślnikiem, aby pomniejszyć; na zielone strzałki, aby przejść do map sąsiednich.


METAR-TAF: